createdAt,value
2023-04-25T00:02:04.303Z,100806.72
2023-04-25T00:04:31.353Z,100829.94
2023-04-25T00:07:02.382Z,100857.81
2023-04-25T00:09:29.147Z,100645.88
2023-04-25T00:11:55.866Z,100857.88
2023-04-25T00:14:23.829Z,100815.00
2023-04-25T00:16:52.656Z,100839.81
2023-04-25T00:19:19.260Z,100820.03
2023-04-25T00:21:47.110Z,100843.16
2023-04-25T00:24:14.743Z,100828.84
2023-04-25T00:26:41.324Z,100847.56
2023-04-25T00:29:07.991Z,100847.50
2023-04-25T00:31:34.683Z,100852.63
2023-04-25T00:34:01.323Z,100873.59
2023-04-25T00:36:28.540Z,100855.25
2023-04-25T00:38:55.988Z,100864.16
2023-04-25T00:41:22.755Z,100885.66
2023-04-25T00:43:52.135Z,100850.78
2023-04-25T00:46:19.007Z,100860.72
2023-04-25T00:48:45.605Z,100776.59
2023-04-25T00:51:20.010Z,100859.94
2023-04-25T00:53:48.418Z,100847.50
2023-04-25T00:56:15.441Z,100887.53
2023-04-25T00:58:43.583Z,100861.72
2023-04-25T01:01:11.719Z,100874.19
2023-04-25T01:03:43.869Z,100888.28
2023-04-25T01:06:11.607Z,100884.91
2023-04-25T01:08:39.694Z,100855.09
2023-04-25T01:11:07.409Z,100854.38
2023-04-25T01:13:35.640Z,100842.38
2023-04-25T01:16:03.553Z,100832.78
2023-04-25T01:18:30.279Z,100881.66
2023-04-25T01:21:07.438Z,100831.34
2023-04-25T01:23:36.753Z,100778.44
2023-04-25T01:26:04.908Z,100867.59
2023-04-25T01:28:32.203Z,100860.22
2023-04-25T01:30:58.941Z,100757.63
2023-04-25T01:33:26.018Z,100883.94
2023-04-25T01:35:52.935Z,100897.91
2023-04-25T01:38:20.525Z,100871.94
2023-04-25T01:40:50.971Z,100899.81
2023-04-25T01:43:19.805Z,100865.63
2023-04-25T01:45:46.940Z,100861.19
2023-04-25T01:48:15.030Z,100857.66
2023-04-25T01:50:45.282Z,100873.50
2023-04-25T01:53:14.436Z,100889.47
2023-04-25T01:55:43.046Z,100871.56
2023-04-25T01:58:14.213Z,100890.09
2023-04-25T02:00:56.829Z,100883.16
2023-04-25T02:03:26.986Z,100875.13
2023-04-25T02:05:54.596Z,100885.16
2023-04-25T02:08:21.602Z,100891.16
2023-04-25T02:10:48.268Z,100900.53
2023-04-25T02:13:18.219Z,100887.56
2023-04-25T02:15:50.922Z,100909.47
2023-04-25T02:18:22.216Z,100906.41
2023-04-25T02:20:48.992Z,100886.41
2023-04-25T02:23:20.085Z,100938.22
2023-04-25T02:25:46.729Z,100813.28
2023-04-25T02:28:14.337Z,100919.47
2023-04-25T02:30:40.962Z,100836.72
2023-04-25T02:33:07.652Z,100895.38
2023-04-25T02:35:36.359Z,100884.09
2023-04-25T02:38:04.923Z,100923.06
2023-04-25T02:40:33.417Z,100925.25
2023-04-25T02:43:01.126Z,100933.88
2023-04-25T02:45:27.746Z,100946.16
2023-04-25T02:47:54.391Z,100898.94
2023-04-25T02:50:21.164Z,100838.63
2023-04-25T02:52:47.868Z,100944.00
2023-04-25T02:55:18.883Z,100906.06
2023-04-25T02:57:46.338Z,100914.78
2023-04-25T03:00:19.613Z,100880.19
2023-04-25T03:02:46.532Z,100944.41
2023-04-25T03:05:13.314Z,100940.69
2023-04-25T03:07:40.483Z,100908.88
2023-04-25T03:10:08.244Z,100934.00
2023-04-25T03:12:36.135Z,100933.81
2023-04-25T03:15:04.987Z,100954.13
2023-04-25T03:17:31.736Z,100910.91
2023-04-25T03:19:59.032Z,100959.09
2023-04-25T03:22:26.235Z,100901.53
2023-04-25T03:24:53.981Z,100913.69
2023-04-25T03:27:21.035Z,100929.66
2023-04-25T03:29:47.712Z,100951.25
2023-04-25T03:32:14.370Z,100914.97
2023-04-25T03:34:41.082Z,100947.25
2023-04-25T03:37:07.827Z,100958.78
2023-04-25T03:39:39.354Z,100955.22
2023-04-25T03:42:07.031Z,100962.25
2023-04-25T03:44:34.112Z,100956.25
2023-04-25T03:47:01.522Z,100951.00
2023-04-25T03:49:28.288Z,100926.06
2023-04-25T03:51:58.732Z,100942.00
2023-04-25T03:54:25.554Z,100963.41
2023-04-25T03:57:16.482Z,100927.38
2023-04-25T03:59:43.711Z,100970.47
2023-04-25T04:02:12.351Z,100945.59
2023-04-25T04:04:40.438Z,100936.75
2023-04-25T04:07:07.456Z,100932.69
2023-04-25T04:09:36.867Z,100936.47
2023-04-25T04:12:08.091Z,100819.19
2023-04-25T04:14:36.247Z,100951.50
2023-04-25T04:17:03.161Z,100932.22
2023-04-25T04:19:30.414Z,100951.38
2023-04-25T04:22:10.980Z,100946.06
2023-04-25T04:24:39.058Z,100955.41
2023-04-25T04:27:07.736Z,100927.88
2023-04-25T04:29:37.612Z,100912.50
2023-04-25T04:32:14.696Z,100877.00
2023-04-25T04:34:42.160Z,100944.16
2023-04-25T04:37:09.193Z,100869.31
2023-04-25T04:39:36.849Z,100988.88
2023-04-25T04:42:30.186Z,100993.69
2023-04-25T04:45:26.182Z,100974.38
2023-04-25T04:48:07.001Z,100908.59
2023-04-25T04:50:36.585Z,100960.63
2023-04-25T04:53:21.832Z,100992.47
2023-04-25T04:56:15.540Z,101002.00
2023-04-25T04:58:51.725Z,100983.69
2023-04-25T05:01:41.586Z,100982.72
2023-04-25T05:04:21.068Z,101007.84
2023-04-25T05:07:05.800Z,100993.34
2023-04-25T05:09:32.353Z,101005.44
2023-04-25T05:12:10.229Z,100999.91
2023-04-25T05:14:36.799Z,101017.44
2023-04-25T05:17:09.514Z,101033.47
2023-04-25T05:19:55.240Z,101028.94
2023-04-25T05:22:34.398Z,101001.59
2023-04-25T05:25:13.944Z,101033.72
2023-04-25T05:27:49.606Z,101027.84
2023-04-25T05:30:36.210Z,101034.38
2023-04-25T05:33:10.175Z,101005.16
2023-04-25T05:35:36.981Z,101018.88
2023-04-25T05:38:03.603Z,101044.41
2023-04-25T05:40:52.962Z,101046.94
2023-04-25T05:43:48.079Z,101051.63
2023-04-25T05:46:35.379Z,101042.13
2023-04-25T05:49:12.987Z,101029.06
2023-04-25T05:51:56.706Z,100982.00
2023-04-25T05:54:52.716Z,100987.59
2023-04-25T05:57:24.981Z,101071.22
2023-04-25T05:59:53.112Z,101065.41
2023-04-25T06:02:22.343Z,101061.16
2023-04-25T06:04:52.297Z,101053.34
2023-04-25T06:07:22.078Z,101087.75
2023-04-25T06:09:48.915Z,101084.63
2023-04-25T06:12:15.862Z,101098.13
2023-04-25T06:14:42.599Z,101068.84
2023-04-25T06:17:09.463Z,101064.84
2023-04-25T06:19:39.170Z,101094.31
2023-04-25T06:22:06.112Z,101052.50
2023-04-25T06:24:33.997Z,101061.47
2023-04-25T06:27:03.656Z,101091.81
2023-04-25T06:29:30.301Z,101063.75
2023-04-25T06:31:58.268Z,101088.66
2023-04-25T06:34:25.120Z,100977.50
2023-04-25T06:36:51.765Z,101107.88
2023-04-25T06:39:21.074Z,101074.53
2023-04-25T06:41:49.392Z,101076.41
2023-04-25T06:44:36.960Z,101110.69
2023-04-25T06:47:07.419Z,101081.03
2023-04-25T06:49:34.219Z,101041.66
2023-04-25T06:52:01.737Z,101096.97
2023-04-25T06:54:30.406Z,101082.16
2023-04-25T06:57:04.404Z,101086.72
2023-04-25T06:59:33.797Z,101096.69
2023-04-25T07:02:01.593Z,101114.41
2023-04-25T07:04:28.451Z,101103.13
2023-04-25T07:06:57.362Z,101030.38
2023-04-25T07:09:34.853Z,101120.25
2023-04-25T07:12:02.639Z,101101.75
2023-04-25T07:14:30.947Z,101124.81
2023-04-25T07:16:58.355Z,101138.88
2023-04-25T07:19:27.616Z,101121.31
2023-04-25T07:21:57.456Z,101135.75
2023-04-25T07:24:24.158Z,101139.22
2023-04-25T07:26:52.243Z,101146.22
2023-04-25T07:29:29.319Z,101116.41
2023-04-25T07:31:59.157Z,101125.72
2023-04-25T07:34:25.908Z,101124.06
2023-04-25T07:36:53.549Z,101137.53
2023-04-25T07:39:21.472Z,101144.53
2023-04-25T07:41:48.327Z,101120.31
2023-04-25T07:44:20.912Z,101115.41
2023-04-25T07:46:47.606Z,101111.53
2023-04-25T07:49:15.710Z,101136.13
2023-04-25T07:51:44.492Z,101148.34
2023-04-25T07:54:15.627Z,101147.41
2023-04-25T07:56:52.635Z,101145.03
2023-04-25T07:59:42.183Z,101147.94
2023-04-25T08:02:08.741Z,101139.81
2023-04-25T08:04:36.028Z,101160.34
2023-04-25T08:07:05.037Z,101093.25
2023-04-25T08:09:39.336Z,101090.53
2023-04-25T08:12:10.752Z,101180.78
2023-04-25T08:14:38.153Z,101163.72
2023-04-25T08:17:06.121Z,101189.97
2023-04-25T08:19:39.069Z,101185.13
2023-04-25T08:22:06.929Z,101174.94
2023-04-25T08:24:43.818Z,101188.50
2023-04-25T08:27:12.026Z,101195.31
2023-04-25T08:29:38.678Z,101184.69
2023-04-25T08:32:05.971Z,101194.88
2023-04-25T08:34:34.558Z,101136.41
2023-04-25T08:37:05.391Z,101202.25
2023-04-25T08:39:40.707Z,101171.34
2023-04-25T08:42:22.692Z,101214.47
2023-04-25T08:44:51.056Z,101153.44
2023-04-25T08:47:22.585Z,101159.56
2023-04-25T08:49:54.757Z,101201.66
2023-04-25T08:52:28.535Z,101146.81
2023-04-25T08:54:56.358Z,101154.94
2023-04-25T08:57:24.296Z,101222.97
2023-04-25T08:59:53.680Z,101220.22
2023-04-25T09:02:21.834Z,101240.75
2023-04-25T09:04:50.772Z,101193.69
2023-04-25T09:07:19.809Z,101234.19
2023-04-25T09:09:46.601Z,101174.63
2023-04-25T09:12:20.066Z,101246.03
2023-04-25T09:15:10.364Z,101252.28
2023-04-25T09:18:04.466Z,101257.44
2023-04-25T09:20:59.562Z,101261.84
2023-04-25T09:34:21.710Z,101280.66
2023-04-25T09:38:06.822Z,101263.72
2023-04-25T09:44:34.608Z,101264.69
2023-04-25T09:55:28.796Z,101261.22
2023-04-25T09:59:11.143Z,101286.19
2023-04-25T10:06:40.500Z,101304.00
2023-04-25T11:27:58.794Z,101316.13
2023-04-25T11:30:27.185Z,101291.50
2023-04-25T11:32:54.538Z,101262.97
2023-04-25T11:35:24.013Z,101333.34
2023-04-25T11:37:51.182Z,101325.00
2023-04-25T11:40:18.925Z,101327.59
2023-04-25T11:42:47.827Z,101258.59
2023-04-25T11:45:15.604Z,101356.56
2023-04-25T11:47:42.401Z,101335.06
2023-04-25T11:50:09.748Z,101313.16
2023-04-25T11:52:44.682Z,101346.00
2023-04-25T11:55:19.451Z,101321.13
2023-04-25T11:57:49.668Z,101270.81
2023-04-25T12:00:19.434Z,101337.84
2023-04-25T12:02:53.522Z,101328.75
2023-04-25T12:05:32.113Z,101333.50
2023-04-25T12:08:16.290Z,101314.72
2023-04-25T12:10:44.719Z,101335.97
2023-04-25T12:13:22.191Z,101257.75
2023-04-25T12:15:48.982Z,101323.59
2023-04-25T12:18:15.653Z,101313.84
2023-04-25T12:20:42.683Z,101268.06
2023-04-25T12:23:09.450Z,101326.31
2023-04-25T12:25:44.392Z,101284.94
2023-04-25T12:28:21.141Z,101358.50
2023-04-25T12:30:58.864Z,101298.69
2023-04-25T12:33:27.053Z,101278.09
2023-04-25T12:35:55.045Z,101343.94
2023-04-25T12:38:26.574Z,101316.72
2023-04-25T12:40:54.301Z,101358.09
2023-04-25T12:43:22.272Z,101341.53
2023-04-25T12:45:56.146Z,101375.25
2023-04-25T12:48:23.353Z,101370.34
2023-04-25T12:50:51.551Z,101265.28
2023-04-25T12:53:19.814Z,101377.56
2023-04-25T12:55:49.397Z,101375.16
2023-04-25T12:58:20.901Z,101306.72
2023-04-25T13:00:47.713Z,101397.72
2023-04-25T13:03:14.514Z,101391.47
2023-04-25T13:05:42.029Z,101378.56
2023-04-25T13:08:08.956Z,101378.97
2023-04-25T13:10:36.936Z,101380.84
2023-04-25T13:13:03.615Z,101327.25
2023-04-25T13:15:30.354Z,101378.69
2023-04-25T13:17:57.069Z,101374.97
2023-04-25T13:20:23.998Z,101380.66
2023-04-25T13:22:50.787Z,101370.72
2023-04-25T13:25:17.496Z,101382.56
2023-04-25T13:27:45.241Z,101375.75
2023-04-25T13:30:12.417Z,101302.78
2023-04-25T13:32:39.490Z,101380.31
2023-04-25T13:35:10.508Z,101372.19
2023-04-25T13:37:37.787Z,101381.72
2023-04-25T13:40:10.744Z,101378.91
2023-04-25T13:42:38.338Z,101367.00
2023-04-25T13:45:05.409Z,101303.06
2023-04-25T13:47:32.015Z,101374.91
2023-04-25T13:49:58.589Z,101376.47
2023-04-25T13:52:25.398Z,101375.75
2023-04-25T13:54:52.168Z,101319.22
2023-04-25T13:57:19.350Z,101339.72
2023-04-25T13:59:46.978Z,101336.97
2023-04-25T14:02:13.773Z,101306.63
2023-04-25T14:04:40.388Z,101332.72
2023-04-25T14:07:07.048Z,101385.13
2023-04-25T14:09:33.684Z,101391.56
2023-04-25T14:12:00.459Z,101293.50
2023-04-25T14:14:27.072Z,101385.25
2023-04-25T14:16:55.087Z,101387.47
2023-04-25T14:19:22.547Z,101382.38
2023-04-25T14:21:49.146Z,101380.84
2023-04-25T14:24:16.788Z,101399.75
2023-04-25T14:26:44.098Z,101309.81
2023-04-25T14:29:12.783Z,101392.91
2023-04-25T14:31:41.301Z,101371.66
2023-04-25T14:34:09.109Z,101309.53
2023-04-25T14:36:37.302Z,101358.91
2023-04-25T14:39:06.128Z,101384.09
2023-04-25T14:41:33.234Z,101368.34
2023-04-25T14:43:59.813Z,101385.81
2023-04-25T14:46:27.041Z,101369.53
2023-04-25T14:48:54.241Z,101378.13
2023-04-25T14:51:21.128Z,101371.34
2023-04-25T14:53:47.850Z,101369.41
2023-04-25T14:56:14.528Z,101391.09
2023-04-25T14:58:41.600Z,101405.47
2023-04-25T15:01:09.231Z,101394.66
2023-04-25T15:03:36.299Z,101337.00
2023-04-25T15:06:03.055Z,101396.91
2023-04-25T15:08:29.562Z,101406.59
2023-04-25T15:10:56.136Z,101417.94
2023-04-25T15:13:22.953Z,101401.44
2023-04-25T15:15:52.190Z,101416.19
2023-04-25T15:18:24.517Z,101414.91
2023-04-25T15:20:54.378Z,101368.16
2023-04-25T15:23:22.351Z,101301.59
2023-04-25T15:25:51.449Z,101440.81
2023-04-25T15:28:18.016Z,101420.66
2023-04-25T15:30:45.668Z,101399.75
2023-04-25T15:33:12.246Z,101429.47
2023-04-25T15:35:38.778Z,101441.41
2023-04-25T15:38:05.592Z,101451.66
2023-04-25T15:40:32.241Z,101445.09
2023-04-25T15:42:59.551Z,101400.63
2023-04-25T15:45:26.856Z,101453.94
2023-04-25T15:47:55.709Z,101389.16
2023-04-25T15:50:23.367Z,101441.84
2023-04-25T15:52:50.930Z,101300.69
2023-04-25T15:55:19.548Z,101392.06
2023-04-25T15:57:46.360Z,101450.16
2023-04-25T16:00:15.088Z,101373.59
2023-04-25T16:02:43.198Z,101446.97
2023-04-25T16:05:11.477Z,101438.03
2023-04-25T16:07:39.549Z,101439.66
2023-04-25T16:10:06.542Z,101439.72
2023-04-25T16:12:33.182Z,101396.47
2023-04-25T16:14:59.866Z,101416.22
2023-04-25T16:17:29.435Z,101476.06
2023-04-25T16:19:56.879Z,101474.69
2023-04-25T16:22:23.595Z,101466.81
2023-04-25T16:24:50.576Z,101487.34
2023-04-25T16:27:17.296Z,101477.56
2023-04-25T16:29:43.866Z,101480.88
2023-04-25T16:32:10.969Z,101486.91
2023-04-25T16:34:37.507Z,101477.25
2023-04-25T16:37:04.519Z,101473.69
2023-04-25T16:39:31.110Z,101467.31
2023-04-25T16:41:57.615Z,101446.50
2023-04-25T16:44:24.161Z,101230.91
2023-04-25T16:46:50.773Z,101477.13
2023-04-25T16:49:17.364Z,101463.28
2023-04-25T16:51:44.032Z,101460.09
2023-04-25T16:54:10.635Z,101483.69
2023-04-25T16:56:37.290Z,101414.09
2023-04-25T16:59:03.855Z,101414.03
2023-04-25T17:01:31.187Z,101498.84
2023-04-25T17:03:57.973Z,101486.28
2023-04-25T17:06:24.848Z,101504.09
2023-04-25T17:08:51.805Z,101509.41
2023-04-25T17:11:20.068Z,101495.97
2023-04-25T17:13:46.739Z,101456.50
2023-04-25T17:16:16.477Z,101486.09
2023-04-25T17:18:43.837Z,101435.19
2023-04-25T17:21:10.590Z,101413.78
2023-04-25T17:23:37.190Z,101468.53
2023-04-25T17:26:03.785Z,101523.00
2023-04-25T17:28:30.404Z,101497.88
2023-04-25T17:30:57.412Z,101425.53
2023-04-25T17:33:26.946Z,101481.22
2023-04-25T17:35:54.308Z,101525.34
2023-04-25T17:38:20.945Z,101505.41
2023-04-25T17:40:47.829Z,101529.44
2023-04-25T17:43:14.377Z,101531.16
2023-04-25T17:45:40.994Z,101514.69
2023-04-25T17:48:07.617Z,101530.72
2023-04-25T17:50:34.251Z,101474.00
2023-04-25T17:53:05.149Z,101545.63
2023-04-25T17:55:31.786Z,101520.09
2023-04-25T17:57:58.324Z,101483.28
2023-04-25T18:00:24.915Z,101534.19
2023-04-25T18:02:52.136Z,101561.81
2023-04-25T18:05:19.105Z,101537.16
2023-04-25T18:07:45.999Z,101527.31
2023-04-25T18:10:12.606Z,101474.38
2023-04-25T18:12:39.148Z,101520.31
2023-04-25T18:15:06.885Z,101562.59
2023-04-25T18:17:39.931Z,101559.50
2023-04-25T18:20:15.083Z,101557.06
2023-04-25T18:22:43.298Z,101478.28
2023-04-25T18:25:11.145Z,101573.50
2023-04-25T18:27:38.787Z,101594.41
2023-04-25T18:30:08.753Z,101574.84
2023-04-25T18:32:35.478Z,101566.00
2023-04-25T18:35:02.274Z,101580.81
2023-04-25T18:37:28.920Z,101575.56
2023-04-25T18:39:55.734Z,101557.97
2023-04-25T18:42:22.430Z,101592.41
2023-04-25T18:44:49.021Z,101562.00
2023-04-25T18:47:15.599Z,101567.88
2023-04-25T18:49:42.496Z,101574.84
2023-04-25T18:52:10.701Z,101588.78
2023-04-25T18:54:37.878Z,101517.09
2023-04-25T18:57:05.982Z,101587.69
2023-04-25T18:59:33.423Z,101524.84
2023-04-25T19:02:04.417Z,101597.38
2023-04-25T19:04:32.267Z,101605.50
2023-04-25T19:06:59.625Z,101612.47
2023-04-25T19:09:26.355Z,101610.03
2023-04-25T19:11:53.088Z,101627.41
2023-04-25T19:14:19.604Z,101627.84
2023-04-25T19:16:46.369Z,101613.84
2023-04-25T19:19:12.969Z,101624.28
2023-04-25T19:21:39.729Z,101629.53
2023-04-25T19:24:07.075Z,101517.47
2023-04-25T19:26:34.098Z,101609.94
2023-04-25T19:29:09.264Z,101536.72
2023-04-25T19:31:37.677Z,101537.00
2023-04-25T19:34:05.851Z,101515.63
2023-04-25T19:36:33.100Z,101514.78
2023-04-25T19:39:03.762Z,101639.53
2023-04-25T19:41:32.084Z,101621.66
2023-04-25T19:44:04.691Z,101501.81
2023-04-25T19:46:34.208Z,101641.06
2023-04-25T19:49:01.478Z,101610.03
2023-04-25T19:51:28.623Z,101550.41
2023-04-25T19:53:55.612Z,101627.03
2023-04-25T19:56:23.514Z,101642.75
2023-04-25T19:58:51.053Z,101605.59
2023-04-25T20:01:18.129Z,101543.94
2023-04-25T20:03:45.299Z,101638.69
2023-04-25T20:06:11.922Z,101529.41
2023-04-25T20:08:38.468Z,101635.06
2023-04-25T20:11:05.356Z,101561.66
2023-04-25T20:13:32.721Z,101635.91
2023-04-25T20:16:01.329Z,101624.69
2023-04-25T20:18:29.633Z,101637.00
2023-04-25T20:20:56.554Z,101623.47
2023-04-25T20:23:23.119Z,101648.28
2023-04-25T20:25:50.440Z,101626.44
2023-04-25T20:28:17.410Z,101649.78
2023-04-25T20:30:44.562Z,101661.19
2023-04-25T20:33:11.173Z,101641.09
2023-04-25T20:35:37.789Z,101638.13
2023-04-25T20:38:04.332Z,101652.09
2023-04-25T20:40:31.110Z,101639.31
2023-04-25T20:42:57.742Z,101640.47
2023-04-25T20:45:26.111Z,101653.78
2023-04-25T20:47:53.210Z,101671.09
2023-04-25T20:50:20.088Z,101670.59
2023-04-25T20:52:46.591Z,101678.16
2023-04-25T20:55:13.439Z,101649.97
2023-04-25T20:57:40.009Z,101581.09
2023-04-25T21:00:18.357Z,101570.50
2023-04-25T21:02:46.614Z,101671.94
2023-04-25T21:05:13.629Z,101599.50
2023-04-25T21:07:40.222Z,101633.31
2023-04-25T21:10:07.188Z,101677.13
2023-04-25T21:12:33.830Z,101692.25
2023-04-25T21:15:00.686Z,101670.06
2023-04-25T21:17:27.594Z,101691.41
2023-04-25T21:19:54.295Z,101662.31
2023-04-25T21:22:21.519Z,101685.44
2023-04-25T21:24:50.665Z,101636.47
2023-04-25T21:27:20.523Z,101679.50
2023-04-25T21:29:47.211Z,101668.66
2023-04-25T21:32:17.484Z,101585.59
2023-04-25T21:34:44.249Z,101682.03
2023-04-25T21:37:11.041Z,101691.19
2023-04-25T21:39:37.773Z,101674.72
2023-04-25T21:42:08.817Z,101682.56
2023-04-25T21:44:35.943Z,101657.97
2023-04-25T21:47:04.446Z,101672.81
2023-04-25T21:49:32.815Z,101692.78
2023-04-25T21:51:59.923Z,101654.31
2023-04-25T21:54:27.072Z,101656.66
2023-04-25T21:56:53.857Z,101605.44
2023-04-25T21:59:23.194Z,101704.47
2023-04-25T22:01:49.984Z,101694.03
2023-04-25T22:04:17.138Z,101708.03
2023-04-25T22:06:43.961Z,101685.72
2023-04-25T22:09:10.564Z,101696.72
2023-04-25T22:11:37.127Z,101684.84
2023-04-25T22:14:03.726Z,101603.59
2023-04-25T22:16:30.384Z,101705.91
2023-04-25T22:18:56.962Z,101716.69
2023-04-25T22:21:24.376Z,101682.50
2023-04-25T22:23:52.686Z,101666.16
2023-04-25T22:26:20.398Z,101721.22
2023-04-25T22:28:47.200Z,101707.66
2023-04-25T22:31:14.329Z,101589.66
2023-04-25T22:33:41.367Z,101727.69
2023-04-25T22:36:08.909Z,101718.03
2023-04-25T22:38:35.825Z,101700.38
2023-04-25T22:41:02.340Z,101704.91
2023-04-25T22:43:29.376Z,101721.72
2023-04-25T22:45:56.824Z,101729.31
2023-04-25T22:48:23.404Z,101600.84
2023-04-25T22:50:51.056Z,101725.59
2023-04-25T22:53:17.641Z,101690.31
2023-04-25T22:55:44.342Z,101704.59
2023-04-25T22:58:10.948Z,101715.47
2023-04-25T23:00:37.632Z,101719.50
2023-04-25T23:03:04.923Z,101734.69
2023-04-25T23:05:32.827Z,101730.16
2023-04-25T23:07:59.944Z,101670.22
2023-04-25T23:10:28.042Z,101734.59
2023-04-25T23:12:57.332Z,101736.81
2023-04-25T23:15:26.392Z,101732.19
2023-04-25T23:17:53.393Z,101751.81
2023-04-25T23:20:21.033Z,101713.66
2023-04-25T23:22:47.880Z,101621.72
2023-04-25T23:25:14.907Z,101644.56
2023-04-25T23:27:42.362Z,101710.66
2023-04-25T23:30:10.401Z,101605.84
2023-04-25T23:32:37.903Z,101737.00
2023-04-25T23:35:05.457Z,101749.47
2023-04-25T23:37:38.612Z,101745.44
2023-04-25T23:40:12.749Z,101673.41
2023-04-25T23:42:41.106Z,101742.13
2023-04-25T23:45:08.883Z,101631.75
2023-04-25T23:47:36.130Z,101740.41
2023-04-25T23:50:03.604Z,101737.69
2023-04-25T23:52:30.297Z,101732.25
2023-04-25T23:54:56.889Z,101635.88
2023-04-25T23:57:23.459Z,101705.38
2023-04-25T23:59:50.154Z,101735.16
